Weather & Traffic



KLGB 021402Z 21007KT 10SM OVC030 22/16 A2996 RMK AO2 T02170161


TAF KLGB 031735Z 0318/0418 VRB05KT P6SM OVC030 FM031930 20006KT P6SM SCT035 FM040300 18008KT P6SM BKN025 FM040800 VRB05KT P6SM OVC020 FM041700 25006KT P6SM BKN030 AMD NOT SKED